createdAt,value
2024-04-11T00:04:42.418Z,15.51
2024-04-11T00:09:45.111Z,15.49
2024-04-11T00:14:47.725Z,15.44
2024-04-11T00:19:50.450Z,15.35
2024-04-11T00:24:53.080Z,15.31
2024-04-11T00:29:55.825Z,15.26
2024-04-11T00:34:58.508Z,15.15
2024-04-11T00:40:01.262Z,15.10
2024-04-11T00:45:06.146Z,15.04
2024-04-11T00:50:09.560Z,14.99
2024-04-11T00:55:12.546Z,14.94
2024-04-11T01:00:15.432Z,14.92
2024-04-11T01:05:18.047Z,14.87
2024-04-11T01:10:20.927Z,14.87
2024-04-11T01:15:23.588Z,14.84
2024-04-11T01:20:26.391Z,14.82
2024-04-11T01:25:29.078Z,14.75
2024-04-11T01:30:31.742Z,14.72
2024-04-11T01:35:34.426Z,14.69
2024-04-11T01:40:38.275Z,14.65
2024-04-11T01:45:42.582Z,14.66
2024-04-11T01:50:45.431Z,14.67
2024-04-11T01:55:48.018Z,14.66
2024-04-11T02:00:50.905Z,14.65
2024-04-11T02:05:53.635Z,14.63
2024-04-11T02:10:56.258Z,14.60
2024-04-11T02:15:58.960Z,14.60
2024-04-11T02:21:01.780Z,14.58
2024-04-11T02:26:04.630Z,14.57
2024-04-11T02:31:07.258Z,14.57
2024-04-11T02:36:10.173Z,14.55
2024-04-11T02:41:12.854Z,14.59
2024-04-11T02:46:15.514Z,14.63
2024-04-11T02:51:18.283Z,14.71
2024-04-11T02:56:20.895Z,14.78
2024-04-11T03:01:23.761Z,14.89
2024-04-11T03:06:26.422Z,14.96
2024-04-11T03:11:29.246Z,15.09
2024-04-11T03:16:32.563Z,15.20
2024-04-11T03:21:35.337Z,15.32
2024-04-11T03:26:38.076Z,15.42
2024-04-11T03:31:42.085Z,15.52
2024-04-11T03:36:44.861Z,15.58
2024-04-11T03:41:47.530Z,15.77
2024-04-11T03:46:50.324Z,16.03
2024-04-11T03:51:53.109Z,16.22
2024-04-11T03:56:55.826Z,16.33
2024-04-11T04:01:58.449Z,16.81
2024-04-11T04:07:01.089Z,17.31
2024-04-11T04:12:03.977Z,17.30
2024-04-11T04:17:06.581Z,17.07
2024-04-11T04:22:09.130Z,16.90
2024-04-11T04:27:11.922Z,16.99
2024-04-11T04:32:15.282Z,17.05
2024-04-11T04:37:17.956Z,17.46
2024-04-11T04:42:20.674Z,17.87
2024-04-11T04:47:23.449Z,17.96
2024-04-11T04:52:26.037Z,17.94
2024-04-11T04:57:28.639Z,18.02
2024-04-11T05:02:31.833Z,17.95
2024-04-11T05:07:34.499Z,18.04
2024-04-11T05:12:37.186Z,17.87
2024-04-11T05:17:43.873Z,17.84
2024-04-11T05:22:48.215Z,17.84
2024-04-11T05:27:50.811Z,18.22
2024-04-11T05:32:53.681Z,19.09
2024-04-11T05:37:56.451Z,21.39
2024-04-11T05:42:59.179Z,20.41
2024-04-11T05:48:02.226Z,20.20
2024-04-11T05:53:05.036Z,20.61
2024-04-11T05:58:07.606Z,22.15
2024-04-11T06:03:10.592Z,23.48
2024-04-11T06:08:13.450Z,24.08
2024-04-11T06:13:16.148Z,25.15
2024-04-11T06:18:18.971Z,25.91
2024-04-11T06:23:21.696Z,25.65
2024-04-11T06:28:24.524Z,23.77
2024-04-11T06:33:27.468Z,23.44
2024-04-11T06:38:30.261Z,24.32
2024-04-11T06:43:32.933Z,22.93
2024-04-11T06:48:35.607Z,22.19
2024-04-11T06:53:39.251Z,21.47
2024-04-11T06:58:41.862Z,21.00
2024-04-11T07:03:47.722Z,22.35
2024-04-11T07:08:53.429Z,23.35
2024-04-11T07:13:57.250Z,23.47
2024-04-11T07:19:00.805Z,22.76
2024-04-11T07:24:03.553Z,21.97
2024-04-11T07:29:07.076Z,22.72
2024-04-11T07:34:10.142Z,23.00
2024-04-11T07:39:13.091Z,25.14
2024-04-11T07:44:15.932Z,25.82
2024-04-11T07:49:18.733Z,25.70
2024-04-11T07:54:29.408Z,24.54
2024-04-11T07:59:39.860Z,23.38
2024-04-11T08:04:42.514Z,22.55
2024-04-11T08:09:45.122Z,21.83
2024-04-11T08:14:47.876Z,21.23
2024-04-11T08:19:57.360Z,20.72
2024-04-11T08:25:01.705Z,20.24
2024-04-11T08:30:05.301Z,20.32
2024-04-11T08:35:08.174Z,20.17
2024-04-11T08:40:11.186Z,20.37
2024-04-11T08:45:13.833Z,20.30
2024-04-11T08:50:16.626Z,20.53
2024-04-11T08:55:19.300Z,20.62
2024-04-11T09:00:22.698Z,20.59
2024-04-11T09:05:25.305Z,20.68
2024-04-11T09:10:28.002Z,20.42
2024-04-11T09:15:30.715Z,20.65
2024-04-11T09:20:33.480Z,20.27
2024-04-11T09:25:36.081Z,20.48
2024-04-11T09:30:38.713Z,20.30
2024-04-11T09:35:41.338Z,20.55
2024-04-11T09:40:47.209Z,20.24
2024-04-11T09:45:49.842Z,20.00
2024-04-11T09:50:53.649Z,19.76
2024-04-11T09:55:57.986Z,19.64
2024-04-11T10:01:00.890Z,19.21
2024-04-11T10:06:05.810Z,19.09
2024-04-11T10:11:12.002Z,19.32
2024-04-11T10:16:21.188Z,19.56
2024-04-11T10:21:33.844Z,19.31
2024-04-11T10:26:47.365Z,19.44
2024-04-11T10:31:50.062Z,19.63
2024-04-11T10:36:52.973Z,19.67
2024-04-11T10:41:58.340Z,19.38
2024-04-11T10:47:01.578Z,19.39
2024-04-11T10:52:04.263Z,19.16
2024-04-11T10:57:12.364Z,19.28
2024-04-11T11:02:15.322Z,19.17
2024-04-11T11:07:20.852Z,18.84
2024-04-11T11:12:23.586Z,18.76
2024-04-11T11:17:26.273Z,18.82
2024-04-11T11:22:35.711Z,19.02
2024-04-11T11:27:38.699Z,19.29
2024-04-11T11:32:41.539Z,19.54
2024-04-11T11:37:44.129Z,19.36
2024-04-11T11:42:46.756Z,19.21
2024-04-11T11:47:49.497Z,19.37
2024-04-11T11:52:55.594Z,19.28
2024-04-11T11:58:01.732Z,19.26
2024-04-11T12:03:06.423Z,19.10
2024-04-11T12:08:09.064Z,18.51
2024-04-11T12:13:11.786Z,18.62
2024-04-11T12:18:14.489Z,18.64
2024-04-11T12:23:17.097Z,18.40
2024-04-11T12:28:19.710Z,18.18
2024-04-11T12:33:22.670Z,18.06
2024-04-11T12:38:25.361Z,18.07
2024-04-11T12:43:27.998Z,17.90
2024-04-11T12:48:31.155Z,17.86
2024-04-11T12:53:33.860Z,17.64
2024-04-11T12:58:36.598Z,17.63
2024-04-11T13:03:39.227Z,17.44
2024-04-11T13:08:41.882Z,17.33
2024-04-11T13:13:44.537Z,17.37
2024-04-11T13:18:47.952Z,17.38
2024-04-11T13:23:51.829Z,17.34
2024-04-11T13:28:54.444Z,17.28
2024-04-11T13:33:57.312Z,17.26
2024-04-11T13:39:01.326Z,17.07
2024-04-11T13:44:05.194Z,16.88
2024-04-11T13:49:07.954Z,16.72
2024-04-11T13:54:10.582Z,16.58
2024-04-11T13:59:13.215Z,16.33
2024-04-11T14:04:15.883Z,16.44
2024-04-11T14:09:19.206Z,16.67
2024-04-11T14:14:21.978Z,16.81
2024-04-11T14:19:26.021Z,16.94
2024-04-11T14:24:28.608Z,16.99
2024-04-11T14:29:31.248Z,16.87
2024-04-11T14:34:33.921Z,16.79
2024-04-11T14:39:39.458Z,16.59
2024-04-11T14:44:42.189Z,16.39
2024-04-11T14:49:44.893Z,16.38
2024-04-11T14:54:50.951Z,16.38
2024-04-11T14:59:54.035Z,16.47
2024-04-11T15:04:57.241Z,17.23
2024-04-11T15:09:59.874Z,16.53
2024-04-11T15:15:03.478Z,16.30
2024-04-11T15:20:06.485Z,16.05
2024-04-11T15:25:09.135Z,16.00
2024-04-11T15:30:11.972Z,15.85
2024-04-11T15:35:14.688Z,15.67
2024-04-11T15:40:17.287Z,15.48
2024-04-11T15:45:21.111Z,15.34
2024-04-11T15:50:23.712Z,15.13
2024-04-11T15:55:26.313Z,15.02
2024-04-11T16:00:29.161Z,14.89
2024-04-11T16:05:31.945Z,14.70
2024-04-11T16:10:34.618Z,14.56
2024-04-11T16:15:37.396Z,14.42
2024-04-11T16:20:40.292Z,14.22
2024-04-11T16:25:42.989Z,14.11
2024-04-11T16:30:45.861Z,14.00
2024-04-11T16:35:48.475Z,13.89
2024-04-11T16:40:51.157Z,13.77
2024-04-11T16:45:53.855Z,13.67
2024-04-11T16:50:56.511Z,13.58
2024-04-11T16:55:59.235Z,13.50
2024-04-11T17:01:01.970Z,13.41
2024-04-11T17:06:04.827Z,13.34
2024-04-11T17:11:07.530Z,13.25
2024-04-11T17:16:10.119Z,13.18
2024-04-11T17:21:12.687Z,13.10
2024-04-11T17:26:15.276Z,13.04
2024-04-11T17:31:17.932Z,12.94
2024-04-11T17:36:20.749Z,12.87
2024-04-11T17:41:23.412Z,12.82
2024-04-11T17:46:26.352Z,12.76
2024-04-11T17:51:29.006Z,12.72
2024-04-11T17:56:31.615Z,12.64
2024-04-11T18:01:34.216Z,12.58
2024-04-11T18:06:36.927Z,12.52
2024-04-11T18:11:39.634Z,12.45
2024-04-11T18:16:42.359Z,12.41
2024-04-11T18:21:45.034Z,12.43
2024-04-11T18:26:47.761Z,12.40
2024-04-11T18:31:50.489Z,12.34
2024-04-11T18:36:53.457Z,12.35
2024-04-11T18:41:56.111Z,12.33
2024-04-11T18:46:58.730Z,12.26
2024-04-11T18:52:01.625Z,12.23
2024-04-11T18:57:04.638Z,12.17
2024-04-11T19:02:07.359Z,12.13
2024-04-11T19:07:10.293Z,12.09
2024-04-11T19:12:13.070Z,12.06
2024-04-11T19:17:15.770Z,11.98
2024-04-11T19:22:18.381Z,11.97
2024-04-11T19:27:21.600Z,11.88
2024-04-11T19:32:24.369Z,11.80
2024-04-11T19:37:27.055Z,11.72
2024-04-11T19:42:29.624Z,11.68
2024-04-11T19:47:32.445Z,11.60
2024-04-11T19:52:35.494Z,11.52
2024-04-11T19:57:41.403Z,11.47
2024-04-11T20:02:44.377Z,11.40
2024-04-11T20:07:46.984Z,11.32
2024-04-11T20:12:49.559Z,11.23
2024-04-11T20:17:52.382Z,11.16
2024-04-11T20:22:55.902Z,11.11
2024-04-11T20:27:58.650Z,11.06
2024-04-11T20:33:01.643Z,10.98
2024-04-11T20:38:04.472Z,10.91
2024-04-11T20:43:07.074Z,10.84
2024-04-11T20:48:09.884Z,10.81
2024-04-11T20:53:12.846Z,10.69
2024-04-11T20:58:15.686Z,10.67
2024-04-11T21:03:18.301Z,10.62
2024-04-11T21:08:21.102Z,10.56
2024-04-11T21:13:23.765Z,10.49
2024-04-11T21:18:26.486Z,10.45
2024-04-11T21:23:29.315Z,10.40
2024-04-11T21:28:31.938Z,10.39
2024-04-11T21:33:34.995Z,10.34
2024-04-11T21:38:38.803Z,10.28
2024-04-11T21:43:42.344Z,10.25
2024-04-11T21:48:50.346Z,10.23
2024-04-11T21:53:55.274Z,10.22
2024-04-11T21:58:57.922Z,10.21
2024-04-11T22:04:00.708Z,10.22
2024-04-11T22:09:03.421Z,10.22
2024-04-11T22:14:06.092Z,10.16
2024-04-11T22:19:08.753Z,10.18
2024-04-11T22:24:11.467Z,10.18
2024-04-11T22:29:14.200Z,10.16
2024-04-11T22:34:16.845Z,10.15
2024-04-11T22:39:19.457Z,10.12
2024-04-11T22:44:21.760Z,10.00
2024-04-11T22:49:24.293Z,10.04
2024-04-11T22:54:27.050Z,9.95
2024-04-11T22:59:33.236Z,9.86
2024-04-11T23:04:35.898Z,9.80
2024-04-11T23:09:41.367Z,9.74
2024-04-11T23:14:44.142Z,9.67
2024-04-11T23:19:46.982Z,9.59
2024-04-11T23:24:49.615Z,9.55
2024-04-11T23:29:52.458Z,9.51
2024-04-11T23:34:55.116Z,9.45
2024-04-11T23:39:57.750Z,9.45
2024-04-11T23:45:00.603Z,9.42
2024-04-11T23:50:03.291Z,9.40
2024-04-11T23:55:06.224Z,9.40
